Time;durP1;ratioP1;P1;durP2;ratioP2;P2;SDS_P1;SDS_P2;PMS_P1;PMS_P2;Temp;Humidity;BMP_temperature;BMP_pressure;BME280_temperature;BME280_humidity;BME280_pressure;Samples;Min_cycle;Max_cycle;Signal;HPM_P1;HPM_P2
2024/01/06 00:01:51;;;;;;;7.47;3.88;;;4.70;99.90;;;;;;5085755;28;20051;-71
2024/01/06 00:04:17;;;;;;;7.05;3.47;;;4.70;99.90;;;;;;5087662;28;20038;-68
2024/01/06 00:06:42;;;;;;;8.32;3.70;;;4.70;99.90;;;;;;5088225;28;20088;-68
2024/01/06 00:09:08;;;;;;;7.80;3.40;;;4.70;99.90;;;;;;5081800;28;20035;-67
2024/01/06 00:11:34;;;;;;;11.02;3.70;;;4.70;99.90;;;;;;5070503;28;20060;-68
2024/01/06 00:13:59;;;;;;;14.45;4.40;;;4.70;99.90;;;;;;5069069;28;20531;-68
2024/01/06 00:16:25;;;;;;;9.27;4.00;;;4.60;99.90;;;;;;5088413;28;20122;-68
2024/01/06 00:18:50;;;;;;;10.63;4.30;;;4.60;99.90;;;;;;5068621;28;20161;-70
2024/01/06 00:21:16;;;;;;;9.85;4.13;;;4.60;99.90;;;;;;5087196;28;20059;-68
2024/01/06 00:23:42;;;;;;;8.32;3.55;;;4.60;99.90;;;;;;5068308;28;20036;-68
2024/01/06 00:26:08;;;;;;;10.23;4.03;;;4.60;99.90;;;;;;5087088;28;20043;-68
2024/01/06 00:28:34;;;;;;;11.18;3.58;;;4.60;99.90;;;;;;5107289;28;20028;-68
2024/01/06 00:30:59;;;;;;;10.25;3.60;;;4.60;99.90;;;;;;5100701;28;20047;-68
2024/01/06 00:33:25;;;;;;;6.93;3.22;;;4.60;99.90;;;;;;5087388;28;20090;-68
2024/01/06 00:35:51;;;;;;;11.80;3.60;;;4.60;99.90;;;;;;5087686;28;20103;-70
2024/01/06 00:38:17;;;;;;;6.93;3.13;;;4.60;99.90;;;;;;5086860;28;20027;-68
2024/01/06 00:40:42;;;;;;;10.63;3.50;;;4.60;99.90;;;;;;5087520;28;20565;-68
2024/01/06 00:43:08;;;;;;;8.23;3.53;;;4.60;99.90;;;;;;5086993;28;20036;-68
2024/01/06 00:45:33;;;;;;;8.32;3.10;;;4.60;99.90;;;;;;5070118;28;20024;-68
2024/01/06 00:47:59;;;;;;;11.68;3.30;;;4.60;99.90;;;;;;5081063;28;20028;-68
2024/01/06 00:50:25;;;;;;;7.28;3.13;;;4.60;99.90;;;;;;5085120;28;20028;-68
2024/01/06 00:52:53;;;;;;;7.25;3.28;;;4.70;99.90;;;;;;5075097;28;20378;-68
2024/01/06 00:55:20;;;;;;;10.43;3.60;;;4.70;99.90;;;;;;5086416;28;20035;-68
2024/01/06 00:57:45;;;;;;;6.13;3.15;;;4.70;99.90;;;;;;5088213;28;20351;-69
2024/01/06 01:00:12;;;;;;;8.48;3.10;;;4.70;99.90;;;;;;5086884;28;20111;-68
2024/01/06 01:02:38;;;;;;;7.72;3.00;;;4.70;99.90;;;;;;5089586;28;20048;-68
2024/01/06 01:05:04;;;;;;;6.85;2.88;;;4.70;99.90;;;;;;5090608;28;20103;-68
2024/01/06 01:07:30;;;;;;;10.40;3.30;;;4.70;99.90;;;;;;5084156;28;20111;-68
2024/01/06 01:09:56;;;;;;;6.68;2.95;;;4.70;99.90;;;;;;5101065;28;20646;-70
2024/01/06 01:12:23;;;;;;;8.80;3.10;;;4.70;99.90;;;;;;5085316;28;20115;-68
2024/01/06 01:14:49;;;;;;;7.38;3.60;;;4.70;99.90;;;;;;5103012;28;20032;-68
2024/01/06 01:17:15;;;;;;;10.40;3.22;;;4.60;99.90;;;;;;5085768;28;20020;-68
2024/01/06 01:19:40;;;;;;;11.88;3.70;;;4.60;99.90;;;;;;5076496;28;20030;-68
2024/01/06 01:22:06;;;;;;;10.10;3.75;;;4.50;99.90;;;;;;5086078;28;20107;-68
2024/01/06 01:24:31;;;;;;;10.07;3.75;;;4.60;99.90;;;;;;5071356;28;20024;-68
2024/01/06 01:26:57;;;;;;;11.07;4.18;;;4.60;99.90;;;;;;5066615;28;20393;-71
2024/01/06 01:29:23;;;;;;;9.93;3.90;;;4.60;99.90;;;;;;5091388;28;20036;-68
2024/01/06 01:31:48;;;;;;;8.82;3.75;;;4.60;99.90;;;;;;5080376;28;20032;-68
2024/01/06 01:34:14;;;;;;;10.95;4.28;;;4.60;99.90;;;;;;5096699;28;20156;-69
2024/01/06 01:36:40;;;;;;;12.93;4.18;;;4.60;99.90;;;;;;5075375;28;20024;-68
2024/01/06 01:39:06;;;;;;;10.93;4.05;;;4.60;99.90;;;;;;5072157;28;20127;-68
2024/01/06 01:41:31;;;;;;;9.57;3.80;;;4.50;99.90;;;;;;5091636;28;20405;-68
2024/01/06 01:44:00;;;;;;;7.60;3.70;;;4.50;99.90;;;;;;5090207;28;20039;-70
2024/01/06 01:46:26;;;;;;;8.00;3.63;;;4.50;99.90;;;;;;5085955;28;20493;-70
2024/01/06 01:48:55;;;;;;;9.85;4.07;;;4.50;99.90;;;;;;5083191;28;20031;-67
2024/01/06 01:51:21;;;;;;;9.50;4.07;;;4.40;99.90;;;;;;5090140;28;20085;-68
2024/01/06 01:53:47;;;;;;;10.30;4.05;;;4.30;99.90;;;;;;5072210;28;20111;-68
2024/01/06 01:56:13;;;;;;;9.15;3.90;;;4.30;99.90;;;;;;5088479;28;20111;-69
2024/01/06 01:58:39;;;;;;;12.27;3.88;;;4.30;99.90;;;;;;5093471;28;20126;-69
2024/01/06 02:01:05;;;;;;;12.85;4.43;;;4.30;99.90;;;;;;5086481;28;20469;-68
2024/01/06 02:03:31;;;;;;;10.90;4.63;;;4.30;99.90;;;;;;5074540;28;20032;-69
2024/01/06 02:05:56;;;;;;;10.55;4.20;;;4.30;99.90;;;;;;5069329;28;20028;-71
2024/01/06 02:08:22;;;;;;;15.95;4.63;;;4.40;99.90;;;;;;5089729;28;20545;-69
2024/01/06 02:10:48;;;;;;;10.40;4.15;;;4.40;99.90;;;;;;5077853;28;20036;-68
2024/01/06 02:13:14;;;;;;;10.63;4.30;;;4.40;99.90;;;;;;5070521;28;20078;-68
2024/01/06 02:15:40;;;;;;;14.25;5.30;;;4.50;99.90;;;;;;5070615;28;20024;-68
2024/01/06 02:18:06;;;;;;;12.52;4.53;;;4.50;99.90;;;;;;5089073;28;20028;-68
2024/01/06 02:20:31;;;;;;;14.00;5.18;;;4.50;99.90;;;;;;5070952;28;20032;-68
2024/01/06 02:22:59;;;;;;;10.63;4.45;;;4.60;99.90;;;;;;5071450;28;20036;-71
2024/01/06 02:25:25;;;;;;;13.23;5.10;;;4.60;99.90;;;;;;5071637;28;20081;-68
2024/01/06 02:27:50;;;;;;;9.18;4.50;;;4.60;99.90;;;;;;5089038;28;20469;-68
2024/01/06 02:30:16;;;;;;;11.75;4.97;;;4.60;99.90;;;;;;5087629;28;20936;-68
2024/01/06 02:32:41;;;;;;;10.45;4.90;;;4.60;99.90;;;;;;5089584;28;20028;-67
2024/01/06 02:35:07;;;;;;;13.27;5.05;;;4.50;99.90;;;;;;5088991;28;20032;-68
2024/01/06 02:37:33;;;;;;;14.45;5.20;;;4.50;99.90;;;;;;5089659;28;20036;-68
2024/01/06 02:39:59;;;;;;;14.23;5.45;;;4.50;99.90;;;;;;5089161;28;20028;-71
2024/01/06 02:42:25;;;;;;;15.68;5.82;;;4.60;99.90;;;;;;5070575;28;20042;-68
2024/01/06 02:44:51;;;;;;;18.50;5.68;;;4.50;99.90;;;;;;5089341;28;20032;-68
2024/01/06 02:47:16;;;;;;;11.60;5.55;;;4.60;99.90;;;;;;5088570;28;20020;-68
2024/01/06 02:49:42;;;;;;;14.48;5.60;;;4.50;99.90;;;;;;5087246;28;20031;-68
2024/01/06 02:52:08;;;;;;;15.13;5.80;;;4.50;99.90;;;;;;5067469;28;20032;-68
2024/01/06 02:54:33;;;;;;;14.23;5.85;;;4.50;99.90;;;;;;5087979;28;20024;-69
2024/01/06 02:56:59;;;;;;;16.98;6.00;;;4.50;99.90;;;;;;5088989;28;20035;-71
2024/01/06 02:59:24;;;;;;;17.55;6.32;;;4.50;99.90;;;;;;5088278;28;20028;-68
2024/01/06 03:01:50;;;;;;;14.45;6.50;;;4.50;99.90;;;;;;5089779;28;20059;-68
2024/01/06 03:04:16;;;;;;;11.57;5.68;;;4.50;99.90;;;;;;5086343;28;20035;-68
2024/01/06 03:06:42;;;;;;;14.85;6.18;;;4.50;99.90;;;;;;5086225;28;20393;-68
2024/01/06 03:09:07;;;;;;;13.77;5.70;;;4.50;99.90;;;;;;5088289;28;20047;-68
2024/01/06 03:11:33;;;;;;;15.23;5.80;;;4.50;99.90;;;;;;5080977;28;20035;-68
2024/01/06 03:13:59;;;;;;;17.25;5.95;;;4.50;99.90;;;;;;5070944;28;20056;-68
2024/01/06 03:16:24;;;;;;;16.30;6.05;;;4.50;99.90;;;;;;5088114;28;20024;-68
2024/01/06 03:18:50;;;;;;;16.80;5.40;;;4.50;99.90;;;;;;5089071;28;20466;-68
2024/01/06 03:21:20;;;;;;;12.68;5.20;;;4.50;99.90;;;;;;5087756;28;20066;-68
2024/01/06 03:23:46;;;;;;;13.77;6.03;;;4.50;99.90;;;;;;5088211;28;20111;-68
2024/01/06 03:26:12;;;;;;;12.85;5.68;;;4.50;99.90;;;;;;5073065;28;20128;-70
2024/01/06 03:28:37;;;;;;;20.35;6.40;;;4.50;99.90;;;;;;5070434;28;20579;-67
2024/01/06 03:31:03;;;;;;;16.38;5.50;;;4.50;99.90;;;;;;5086192;28;20100;-71
2024/01/06 03:33:29;;;;;;;13.07;5.38;;;4.40;99.90;;;;;;5088559;28;20024;-68
2024/01/06 03:35:54;;;;;;;16.35;5.97;;;4.30;99.90;;;;;;5087693;28;20170;-68
2024/01/06 03:38:20;;;;;;;17.63;6.03;;;4.30;99.90;;;;;;5087984;28;20106;-68
2024/01/06 03:40:45;;;;;;;14.40;5.95;;;4.30;99.90;;;;;;5088899;28;20110;-68
2024/01/06 03:43:11;;;;;;;13.65;6.05;;;4.40;99.90;;;;;;5087574;28;20020;-68
2024/01/06 03:45:37;;;;;;;14.05;4.97;;;4.40;99.90;;;;;;5070179;28;20035;-68
2024/01/06 03:48:02;;;;;;;12.98;5.55;;;4.40;99.90;;;;;;5069509;28;20709;-70
2024/01/06 03:50:28;;;;;;;12.32;5.53;;;4.30;99.90;;;;;;5085439;28;20039;-68
2024/01/06 03:52:54;;;;;;;15.13;6.22;;;4.30;99.90;;;;;;5088289;28;20095;-68
2024/01/06 03:55:19;;;;;;;14.57;5.82;;;4.30;99.90;;;;;;5068258;28;20462;-68
2024/01/06 03:57:45;;;;;;;16.98;6.22;;;4.30;99.90;;;;;;5088676;28;20024;-68
2024/01/06 04:00:11;;;;;;;13.85;5.30;;;4.30;99.90;;;;;;5068998;28;20040;-68
2024/01/06 04:02:36;;;;;;;16.05;5.82;;;4.30;99.90;;;;;;5054345;28;20540;-68
2024/01/06 04:05:04;;;;;;;15.20;6.22;;;4.20;99.90;;;;;;5078829;28;20110;-70
2024/01/06 04:07:30;;;;;;;14.25;5.80;;;4.30;99.90;;;;;;5057866;28;20097;-68
2024/01/06 04:09:56;;;;;;;12.45;5.63;;;4.30;99.90;;;;;;5082205;28;20517;-68
2024/01/06 04:12:21;;;;;;;15.82;5.85;;;4.30;99.90;;;;;;5069594;28;20029;-68
2024/01/06 04:14:47;;;;;;;15.73;5.65;;;4.30;99.90;;;;;;5076565;28;20388;-68
2024/01/06 04:17:13;;;;;;;14.82;5.90;;;4.20;99.90;;;;;;5087261;28;20547;-68
2024/01/06 04:19:38;;;;;;;14.23;6.10;;;4.20;99.90;;;;;;5075795;28;20032;-68
2024/01/06 04:22:04;;;;;;;17.20;6.28;;;4.20;99.90;;;;;;5054788;28;20371;-71
2024/01/06 04:24:30;;;;;;;14.40;6.22;;;4.20;99.90;;;;;;5075059;28;20017;-68
2024/01/06 04:26:55;;;;;;;13.82;6.13;;;4.20;99.90;;;;;;5085114;28;20470;-69
2024/01/06 04:29:21;;;;;;;19.02;6.57;;;4.20;99.90;;;;;;5066001;28;20027;-68
2024/01/06 04:31:47;;;;;;;18.35;6.63;;;4.20;99.90;;;;;;5086955;28;20085;-68
2024/01/06 04:34:12;;;;;;;16.77;6.82;;;4.20;99.90;;;;;;5076506;28;20033;-68
2024/01/06 04:36:38;;;;;;;12.70;5.68;;;4.20;99.90;;;;;;5083723;28;20028;-69
2024/01/06 04:39:03;;;;;;;18.25;6.63;;;4.20;99.90;;;;;;5079658;28;20025;-68
2024/01/06 04:41:29;;;;;;;17.42;6.28;;;4.30;99.90;;;;;;5064580;28;20039;-68
2024/01/06 04:43:55;;;;;;;17.25;5.80;;;4.20;99.90;;;;;;5082722;28;20101;-69
2024/01/06 04:46:21;;;;;;;13.43;6.35;;;4.20;99.90;;;;;;5089933;28;20035;-68
2024/01/06 04:48:47;;;;;;;14.35;6.18;;;4.30;99.90;;;;;;5088600;28;20026;-68
2024/01/06 04:51:13;;;;;;;18.85;6.65;;;4.30;99.90;;;;;;5084422;28;20394;-68
2024/01/06 04:53:39;;;;;;;18.13;6.60;;;4.30;99.90;;;;;;5072999;28;20475;-68
2024/01/06 04:56:05;;;;;;;19.90;6.68;;;4.40;99.90;;;;;;5056675;28;20097;-71
2024/01/06 04:58:31;;;;;;;13.80;6.35;;;4.30;99.90;;;;;;5074344;28;20032;-68
2024/01/06 05:00:57;;;;;;;19.00;6.13;;;4.30;99.90;;;;;;5086450;28;20052;-68
2024/01/06 05:03:23;;;;;;;13.13;5.72;;;4.20;99.90;;;;;;5088886;28;20453;-68
2024/01/06 05:05:48;;;;;;;18.67;5.78;;;4.10;99.90;;;;;;5105074;28;20016;-69
2024/01/06 05:08:14;;;;;;;19.05;5.20;;;4.10;99.90;;;;;;5093442;28;20036;-68
2024/01/06 05:10:39;;;;;;;15.20;5.40;;;4.10;99.90;;;;;;5109215;28;20381;-68
2024/01/06 05:13:05;;;;;;;17.98;5.25;;;4.10;99.90;;;;;;5102365;28;20032;-68
2024/01/06 05:15:30;;;;;;;12.43;5.35;;;4.10;99.90;;;;;;5085818;28;20117;-68
2024/01/06 05:17:56;;;;;;;15.43;5.18;;;4.10;99.90;;;;;;5096937;28;20173;-68
2024/01/06 05:20:22;;;;;;;21.05;5.20;;;4.10;99.90;;;;;;5104985;28;20034;-68
2024/01/06 05:22:47;;;;;;;16.20;5.00;;;4.10;99.90;;;;;;5098057;28;20028;-71
2024/01/06 05:25:13;;;;;;;14.02;4.75;;;4.10;99.90;;;;;;5111582;28;20548;-68
2024/01/06 05:27:39;;;;;;;15.98;5.07;;;4.00;99.90;;;;;;5110600;28;20103;-68
2024/01/06 05:30:06;;;;;;;12.25;4.55;;;4.00;99.90;;;;;;5097889;28;20111;-68
2024/01/06 05:32:31;;;;;;;16.67;5.40;;;4.00;99.90;;;;;;5072658;28;20024;-68
2024/01/06 05:34:57;;;;;;;14.75;5.40;;;4.00;99.90;;;;;;5087763;28;20027;-67
2024/01/06 05:37:23;;;;;;;14.02;4.40;;;3.90;99.90;;;;;;5093648;28;20076;-68
2024/01/06 05:39:48;;;;;;;14.73;5.13;;;3.90;99.90;;;;;;5108012;28;20108;-68
2024/01/06 05:42:17;;;;;;;13.38;4.38;;;3.90;99.90;;;;;;5091041;28;20028;-68
2024/01/06 05:44:42;;;;;;;17.05;5.05;;;3.90;99.90;;;;;;5081586;28;20397;-68
2024/01/06 05:47:08;;;;;;;10.73;4.53;;;3.90;99.90;;;;;;5096625;28;20032;-70
2024/01/06 05:49:34;;;;;;;15.13;4.93;;;3.90;99.90;;;;;;5093259;28;20066;-68
2024/01/06 05:52:00;;;;;;;12.25;5.00;;;4.00;99.90;;;;;;5066710;28;20432;-68
2024/01/06 05:54:25;;;;;;;15.30;4.80;;;4.00;99.90;;;;;;5084763;28;20054;-68
2024/01/06 05:56:51;;;;;;;17.05;4.68;;;4.00;99.90;;;;;;5095231;28;20032;-68
2024/01/06 05:59:17;;;;;;;12.63;4.07;;;4.00;99.90;;;;;;5090066;28;20063;-69
2024/01/06 06:01:43;;;;;;;13.52;4.75;;;4.00;99.90;;;;;;5095646;28;20064;-68
2024/01/06 06:04:10;;;;;;;9.50;3.92;;;4.00;99.90;;;;;;5091676;28;20036;-68
2024/01/06 06:06:35;;;;;;;11.50;4.22;;;4.00;99.90;;;;;;5091738;28;20047;-69
2024/01/06 06:09:06;;;;;;;14.68;4.63;;;4.00;99.90;;;;;;5091806;28;20032;-69
2024/01/06 06:11:32;;;;;;;9.00;3.85;;;4.00;99.90;;;;;;5098101;28;20023;-68
2024/01/06 06:13:58;;;;;;;12.18;3.90;;;4.00;99.90;;;;;;5087831;28;20039;-68
2024/01/06 06:16:24;;;;;;;8.27;3.90;;;4.00;99.90;;;;;;5099088;28;20034;-68
2024/01/06 06:18:49;;;;;;;17.20;4.13;;;4.10;99.90;;;;;;5107911;28;20028;-68
2024/01/06 06:21:15;;;;;;;12.80;4.28;;;4.10;99.90;;;;;;5092773;28;20101;-70
2024/01/06 06:23:41;;;;;;;8.48;3.40;;;4.10;99.90;;;;;;5095456;28;20024;-68
2024/01/06 06:26:07;;;;;;;14.30;4.25;;;4.10;99.90;;;;;;5105762;28;20027;-68
2024/01/06 06:28:34;;;;;;;13.60;3.40;;;4.10;99.90;;;;;;5071669;28;20027;-68
2024/01/06 06:31:01;;;;;;;9.30;3.92;;;4.10;99.90;;;;;;5090704;28;20032;-68
2024/01/06 06:33:27;;;;;;;8.10;3.20;;;4.00;99.90;;;;;;5093775;28;20024;-68
2024/01/06 06:35:52;;;;;;;9.82;3.78;;;4.00;99.90;;;;;;5099252;28;20032;-68
2024/01/06 06:38:18;;;;;;;11.70;4.10;;;4.00;99.90;;;;;;5089528;28;20386;-69
2024/01/06 06:40:43;;;;;;;14.05;3.75;;;4.00;99.90;;;;;;5073164;28;20047;-68
2024/01/06 06:43:09;;;;;;;10.30;2.97;;;4.00;99.90;;;;;;5100049;28;20108;-68
2024/01/06 06:45:35;;;;;;;9.85;3.05;;;4.00;99.90;;;;;;5074589;28;20110;-68
2024/01/06 06:48:00;;;;;;;9.73;3.00;;;4.00;99.90;;;;;;5097285;28;20034;-68
2024/01/06 06:50:26;;;;;;;8.60;3.58;;;3.90;99.90;;;;;;5087795;28;20055;-68
2024/01/06 06:52:52;;;;;;;11.57;3.15;;;3.90;99.90;;;;;;5103792;28;20066;-68
2024/01/06 06:55:18;;;;;;;12.23;3.28;;;3.90;99.90;;;;;;5101560;28;20024;-68
2024/01/06 06:57:44;;;;;;;12.40;3.92;;;3.90;99.90;;;;;;5090053;28;20437;-68
2024/01/06 07:00:10;;;;;;;11.68;3.58;;;3.90;99.90;;;;;;5090167;28;20043;-68
2024/01/06 07:02:36;;;;;;;12.23;3.75;;;3.90;99.90;;;;;;5087874;28;20036;-68
2024/01/06 07:05:01;;;;;;;14.73;3.95;;;3.90;99.90;;;;;;5090342;28;20470;-68
2024/01/06 07:07:27;;;;;;;8.45;3.60;;;3.80;99.90;;;;;;5088870;28;20057;-67
2024/01/06 07:09:53;;;;;;;13.52;3.65;;;3.80;99.90;;;;;;5090182;28;20036;-68
2024/01/06 07:12:19;;;;;;;16.83;3.53;;;3.70;99.90;;;;;;5088724;28;21367;-68
2024/01/06 07:14:44;;;;;;;11.95;3.65;;;3.70;99.90;;;;;;5073569;28;20028;-68
2024/01/06 07:17:10;;;;;;;8.52;3.63;;;3.70;99.90;;;;;;5090412;28;20466;-68
2024/01/06 07:19:35;;;;;;;13.98;3.90;;;3.70;99.90;;;;;;5095850;28;20024;-68
2024/01/06 07:22:01;;;;;;;14.73;3.72;;;3.70;99.90;;;;;;5089548;28;20040;-68
2024/01/06 07:24:27;;;;;;;14.50;4.38;;;3.80;99.90;;;;;;5099392;28;20102;-68
2024/01/06 07:26:52;;;;;;;11.10;4.15;;;3.80;99.90;;;;;;5073331;28;20028;-68
2024/01/06 07:29:18;;;;;;;12.85;3.92;;;3.80;99.90;;;;;;5088708;28;20386;-71
2024/01/06 07:31:44;;;;;;;12.73;4.03;;;3.80;99.90;;;;;;5071138;28;20028;-68
2024/01/06 07:34:10;;;;;;;11.85;4.07;;;3.90;99.90;;;;;;5089071;28;20035;-68
2024/01/06 07:36:35;;;;;;;13.80;4.50;;;4.00;99.90;;;;;;5072764;28;20020;-69
2024/01/06 07:39:02;;;;;;;11.50;4.10;;;4.00;99.90;;;;;;5097813;28;20027;-68
2024/01/06 07:41:30;;;;;;;14.50;4.18;;;4.00;99.90;;;;;;5090480;28;20070;-68
2024/01/06 07:43:56;;;;;;;10.52;4.60;;;4.00;99.90;;;;;;5091250;28;20035;-68
2024/01/06 07:46:22;;;;;;;14.38;4.85;;;4.00;99.90;;;;;;5077325;28;20647;-69
2024/01/06 07:48:47;;;;;;;13.93;5.15;;;4.00;99.90;;;;;;5065853;28;20397;-68
2024/01/06 07:51:13;;;;;;;13.82;5.43;;;4.00;99.90;;;;;;5088598;28;20094;-68
2024/01/06 07:53:39;;;;;;;11.95;4.97;;;4.10;99.90;;;;;;5097530;28;20694;-68
2024/01/06 07:56:05;;;;;;;13.90;4.97;;;4.00;99.90;;;;;;5107489;28;20102;-68
2024/01/06 07:58:31;;;;;;;12.13;5.18;;;4.00;99.90;;;;;;5108546;28;20385;-68
2024/01/06 08:00:57;;;;;;;16.23;5.18;;;4.00;99.90;;;;;;5091936;28;20040;-68
2024/01/06 08:03:22;;;;;;;12.55;5.55;;;4.00;99.90;;;;;;5086479;28;20515;-68
2024/01/06 08:05:49;;;;;;;13.75;5.20;;;4.00;99.90;;;;;;5085360;28;20027;-68
2024/01/06 08:08:16;;;;;;;12.95;5.30;;;4.00;99.90;;;;;;5089207;28;20462;-68
2024/01/06 08:10:42;;;;;;;12.98;5.60;;;4.00;99.90;;;;;;5080764;28;20036;-68
2024/01/06 08:13:08;;;;;;;14.73;5.00;;;3.90;99.90;;;;;;5078890;28;20033;-69
2024/01/06 08:15:34;;;;;;;17.13;6.60;;;4.00;99.90;;;;;;5089411;28;20099;-68
2024/01/06 08:17:59;;;;;;;16.20;5.90;;;4.00;99.90;;;;;;5070326;28;20173;-68
2024/01/06 08:20:25;;;;;;;12.77;5.00;;;4.00;99.90;;;;;;5060743;28;20029;-68
2024/01/06 08:22:51;;;;;;;13.10;5.15;;;4.10;99.90;;;;;;5084774;28;20055;-68
2024/01/06 08:25:17;;;;;;;16.05;5.32;;;4.10;99.90;;;;;;5080788;28;20037;-68
2024/01/06 08:27:43;;;;;;;13.85;5.60;;;4.10;99.90;;;;;;5086063;28;20097;-68
2024/01/06 08:30:09;;;;;;;13.02;5.53;;;4.20;99.90;;;;;;5088250;28;20051;-68
2024/01/06 08:32:35;;;;;;;13.43;5.43;;;4.30;99.90;;;;;;5087381;28;20612;-68
2024/01/06 08:35:01;;;;;;;16.85;5.32;;;4.30;99.90;;;;;;5096602;28;20031;-68
2024/01/06 08:37:26;;;;;;;12.77;5.43;;;4.40;99.90;;;;;;5095153;28;20024;-69
2024/01/06 08:39:52;;;;;;;10.27;4.32;;;4.40;99.90;;;;;;5064194;28;20079;-68
2024/01/06 08:42:18;;;;;;;12.55;4.72;;;4.50;99.90;;;;;;5081960;28;20449;-70
2024/01/06 08:44:44;;;;;;;13.45;4.28;;;4.50;99.90;;;;;;5077937;28;20033;-68
2024/01/06 08:47:10;;;;;;;11.27;4.05;;;4.40;99.90;;;;;;5084581;28;20099;-68
2024/01/06 08:49:36;;;;;;;17.42;4.60;;;4.40;99.90;;;;;;5086626;28;20483;-69
2024/01/06 08:52:01;;;;;;;16.05;4.30;;;4.40;99.90;;;;;;5078386;28;20070;-69
2024/01/06 08:54:27;;;;;;;12.52;4.10;;;4.40;99.90;;;;;;5078867;28;20032;-68
2024/01/06 08:56:52;;;;;;;15.95;4.75;;;4.40;99.90;;;;;;5080346;28;20040;-68
2024/01/06 08:59:20;;;;;;;9.85;3.63;;;4.50;99.90;;;;;;5081871;28;20024;-69
2024/01/06 09:01:45;;;;;;;10.70;3.25;;;4.50;99.90;;;;;;5077044;28;20063;-68
2024/01/06 09:04:12;;;;;;;10.95;3.80;;;4.40;99.90;;;;;;5085301;28;20028;-68
2024/01/06 09:06:38;;;;;;;6.28;3.15;;;4.40;99.90;;;;;;5075843;28;20059;-70
2024/01/06 09:09:05;;;;;;;8.95;3.45;;;4.40;99.90;;;;;;5083294;28;20047;-69
2024/01/06 09:11:31;;;;;;;9.02;3.80;;;4.50;99.90;;;;;;5080984;28;20024;-69
2024/01/06 09:13:56;;;;;;;9.20;3.90;;;4.40;99.90;;;;;;5079770;28;20359;-68
2024/01/06 09:16:22;;;;;;;10.77;4.53;;;4.40;99.90;;;;;;5053732;28;20085;-71
2024/01/06 09:18:49;;;;;;;10.18;4.50;;;4.50;99.90;;;;;;5063151;28;20028;-69
2024/01/06 09:21:15;;;;;;;14.50;6.07;;;4.50;99.90;;;;;;5092850;28;20031;-70
2024/01/06 09:23:40;;;;;;;14.70;4.18;;;4.50;99.90;;;;;;5085601;28;20109;-69
2024/01/06 09:26:06;;;;;;;9.52;3.78;;;4.60;99.90;;;;;;5065401;28;20512;-69
2024/01/06 09:28:32;;;;;;;9.80;3.30;;;4.60;99.90;;;;;;5080942;28;20028;-69
2024/01/06 09:30:58;;;;;;;13.15;5.38;;;4.50;99.90;;;;;;5079099;28;20052;-70
2024/01/06 09:33:23;;;;;;;10.35;3.92;;;4.60;99.90;;;;;;5074358;28;20081;-72
2024/01/06 09:35:49;;;;;;;10.90;2.95;;;4.60;99.90;;;;;;5076940;28;20025;-70
2024/01/06 09:38:14;;;;;;;8.82;3.58;;;4.60;99.90;;;;;;5065633;28;20454;-70
2024/01/06 09:40:44;;;;;;;14.43;3.60;;;4.70;99.90;;;;;;5078314;28;20046;-69
2024/01/06 09:43:13;;;;;;;7.30;3.60;;;4.70;99.90;;;;;;5076165;28;20437;-69
2024/01/06 09:45:39;;;;;;;9.18;3.58;;;4.60;99.90;;;;;;5083787;28;20091;-71
2024/01/06 09:48:15;;;;;;;7.05;3.00;;;4.60;99.90;;;;;;5080349;28;20424;-69
2024/01/06 09:50:42;;;;;;;11.90;3.05;;;4.60;99.90;;;;;;5081572;28;20056;-69
2024/01/06 09:53:11;;;;;;;8.95;4.22;;;4.60;99.90;;;;;;5074794;28;21208;-70
2024/01/06 09:55:38;;;;;;;13.63;3.65;;;4.60;99.90;;;;;;5089686;28;20028;-69
2024/01/06 09:58:05;;;;;;;9.15;3.40;;;4.70;99.90;;;;;;5082000;28;20028;-69
2024/01/06 10:00:30;;;;;;;7.05;3.00;;;4.70;99.90;;;;;;5075535;28;20138;-69
2024/01/06 10:02:56;;;;;;;6.72;3.50;;;4.70;99.90;;;;;;5076515;28;20135;-69
2024/01/06 10:05:22;;;;;;;8.30;3.28;;;4.70;99.90;;;;;;5080917;28;20071;-69
2024/01/06 10:07:48;;;;;;;10.77;3.53;;;4.80;99.90;;;;;;5064196;28;20029;-69
2024/01/06 10:10:14;;;;;;;10.07;3.47;;;4.70;99.90;;;;;;5078411;28;20094;-69
2024/01/06 10:12:41;;;;;;;11.68;3.97;;;4.80;99.90;;;;;;5077833;28;20070;-70
2024/01/06 10:15:11;;;;;;;11.55;4.15;;;4.80;99.90;;;;;;5068303;28;20146;-70
2024/01/06 10:17:41;;;;;;;10.05;3.92;;;4.80;99.90;;;;;;5080652;28;20355;-69
2024/01/06 10:20:09;;;;;;;5.67;2.80;;;4.80;99.90;;;;;;5060155;28;20071;-69
2024/01/06 10:22:37;;;;;;;12.63;3.72;;;4.80;99.90;;;;;;5074785;28;20811;-69
2024/01/06 10:25:06;;;;;;;11.10;3.88;;;4.80;99.90;;;;;;5079379;28;20122;-70
2024/01/06 10:27:37;;;;;;;9.18;3.75;;;4.80;99.90;;;;;;5078143;28;20039;-69
2024/01/06 10:30:03;;;;;;;9.32;4.20;;;4.80;99.90;;;;;;5085869;28;20067;-69
2024/01/06 10:32:32;;;;;;;12.43;4.40;;;4.80;99.90;;;;;;5067679;28;20472;-71
2024/01/06 10:34:58;;;;;;;12.13;4.10;;;4.80;99.90;;;;;;5079176;28;20085;-70
2024/01/06 10:37:24;;;;;;;12.80;3.63;;;4.80;99.90;;;;;;5079772;28;20040;-69
2024/01/06 10:40:22;;;;;;;11.73;3.40;;;4.90;99.90;;;;;;5056597;28;20383;-69
2024/01/06 10:42:48;;;;;;;6.93;2.95;;;5.00;99.90;;;;;;5072390;28;20111;-70
2024/01/06 10:45:14;;;;;;;9.13;3.10;;;5.00;99.90;;;;;;5076917;28;20107;-71
2024/01/06 10:47:44;;;;;;;6.20;2.75;;;5.00;99.90;;;;;;5080826;28;20431;-69
2024/01/06 10:50:10;;;;;;;10.07;4.03;;;5.00;99.90;;;;;;5077558;28;20099;-70
2024/01/06 10:52:38;;;;;;;11.15;4.00;;;5.10;99.90;;;;;;5080533;28;20115;-69
2024/01/06 10:55:05;;;;;;;9.20;3.22;;;5.20;99.90;;;;;;5056074;28;20044;-70
2024/01/06 10:57:31;;;;;;;9.65;3.17;;;5.30;99.90;;;;;;5062050;28;20065;-71
2024/01/06 10:59:58;;;;;;;9.55;3.17;;;5.40;99.90;;;;;;5058424;28;20462;-70
2024/01/06 11:02:25;;;;;;;8.35;3.45;;;5.40;99.90;;;;;;5076629;28;20053;-69
2024/01/06 11:04:51;;;;;;;9.00;3.38;;;5.30;99.90;;;;;;5073721;28;20071;-70
2024/01/06 11:07:19;;;;;;;11.60;4.65;;;5.30;99.90;;;;;;5084899;28;20020;-70
2024/01/06 11:09:57;;;;;;;17.08;7.28;;;5.40;99.90;;;;;;5079312;28;20032;-70
2024/01/06 11:12:26;;;;;;;23.08;14.43;;;5.50;99.90;;;;;;5080461;28;20502;-71
2024/01/06 11:14:52;;;;;;;9.38;3.63;;;5.50;99.90;;;;;;5092731;28;20035;-69
2024/01/06 11:17:55;;;;;;;9.10;3.20;;;5.50;99.90;;;;;;5103247;28;20053;-70
2024/01/06 11:20:30;;;;;;;8.52;2.65;;;5.30;99.90;;;;;;5019367;28;20093;-69
2024/01/06 11:23:20;;;;;;;17.40;3.33;;;5.30;99.90;;;;;;5044900;28;20441;-69
2024/01/06 11:25:46;;;;;;;11.15;2.95;;;5.20;99.90;;;;;;5068763;28;20376;-69
2024/01/06 11:28:12;;;;;;;6.63;2.88;;;5.20;99.90;;;;;;5069433;28;20044;-69
2024/01/06 11:30:39;;;;;;;7.13;3.13;;;5.00;99.90;;;;;;5050628;28;20043;-70
2024/01/06 11:33:04;;;;;;;6.43;2.75;;;5.00;99.90;;;;;;5068205;28;20031;-69
2024/01/06 11:35:31;;;;;;;7.70;2.80;;;5.10;99.90;;;;;;5089167;28;20032;-72
2024/01/06 11:38:07;;;;;;;6.40;3.22;;;5.20;99.90;;;;;;5070930;28;20032;-70
2024/01/06 11:40:36;;;;;;;8.18;3.45;;;5.20;99.90;;;;;;5088087;28;20032;-72
2024/01/06 11:43:03;;;;;;;9.77;3.53;;;5.30;99.90;;;;;;5106009;28;20044;-69
2024/01/06 11:45:29;;;;;;;6.22;2.67;;;5.30;99.90;;;;;;5109181;28;20035;-71
2024/01/06 11:48:01;;;;;;;8.52;3.22;;;5.30;99.90;;;;;;5109380;28;20023;-69
2024/01/06 11:50:27;;;;;;;7.45;3.35;;;5.20;99.90;;;;;;5091505;28;20160;-69
2024/01/06 11:52:55;;;;;;;7.10;2.80;;;5.10;99.90;;;;;;5093341;28;20040;-70
2024/01/06 11:55:21;;;;;;;7.78;3.25;;;5.10;99.90;;;;;;5052477;28;20032;-69
2024/01/06 11:57:50;;;;;;;7.68;3.17;;;5.10;99.90;;;;;;5067979;28;20021;-69
2024/01/06 12:00:16;;;;;;;6.82;3.22;;;5.10;99.90;;;;;;5089305;28;20023;-70
2024/01/06 12:02:42;;;;;;;6.53;2.90;;;5.00;99.90;;;;;;5094771;28;20048;-69
2024/01/06 12:05:16;;;;;;;6.72;3.30;;;5.10;99.90;;;;;;5092293;28;20050;-70
2024/01/06 12:07:45;;;;;;;7.15;3.40;;;5.10;99.90;;;;;;5079683;28;20036;-69
2024/01/06 12:10:11;;;;;;;7.60;3.30;;;5.00;99.90;;;;;;5101240;28;20471;-69
2024/01/06 12:12:37;;;;;;;9.93;3.72;;;4.90;99.90;;;;;;5069272;28;20032;-69
2024/01/06 12:15:04;;;;;;;8.35;3.72;;;4.80;99.90;;;;;;5084208;28;20498;-70
2024/01/06 12:17:31;;;;;;;7.97;3.50;;;4.90;99.90;;;;;;5068534;28;20024;-69
2024/01/06 12:19:57;;;;;;;7.10;3.50;;;4.90;99.90;;;;;;5075366;28;20048;-69
2024/01/06 12:22:23;;;;;;;6.72;3.33;;;5.00;99.90;;;;;;5082096;28;20036;-71
2024/01/06 12:24:52;;;;;;;7.72;3.10;;;5.00;99.90;;;;;;5059287;28;20035;-70
2024/01/06 12:27:18;;;;;;;7.45;3.50;;;5.00;99.90;;;;;;5085858;28;20060;-69
2024/01/06 12:29:44;;;;;;;7.68;3.40;;;5.00;99.90;;;;;;5079308;28;20032;-70
2024/01/06 12:32:13;;;;;;;7.68;3.08;;;4.90;99.90;;;;;;5085756;28;20038;-70
2024/01/06 12:34:39;;;;;;;6.18;3.13;;;4.90;99.90;;;;;;5083747;28;20020;-69
2024/01/06 12:37:07;;;;;;;6.07;3.00;;;4.90;99.90;;;;;;5075661;28;20033;-69
2024/01/06 12:39:33;;;;;;;6.35;3.08;;;4.90;99.90;;;;;;5080036;28;20119;-71
2024/01/06 12:42:02;;;;;;;7.07;3.22;;;5.00;99.90;;;;;;5079610;28;20107;-70
2024/01/06 12:44:28;;;;;;;8.82;3.20;;;5.10;99.90;;;;;;5074000;28;20031;-69
2024/01/06 12:46:54;;;;;;;8.07;3.50;;;5.20;99.90;;;;;;5071064;28;20107;-69